Time;durP1;ratioP1;P1;durP2;ratioP2;P2;SDS_P1;SDS_P2;PMS_P1;PMS_P2;Temp;Humidity;BMP_temperature;BMP_pressure;BME280_temperature;BME280_humidity;BME280_pressure;Samples;Min_cycle;Max_cycle;Signal;HPM_P1;HPM_P2
2024/04/09 00:01:48;;;;;;;5.45;2.53;;;;;;;;;;5385600;26;87308;-87
2024/04/09 00:04:27;;;;;;;4.57;2.47;;;;;;;;;;5392437;26;88513;-86
2024/04/09 00:06:57;;;;;;;3.90;2.35;;;;;;;;;;5371019;26;87814;-85
2024/04/09 00:09:29;;;;;;;4.15;2.13;;;;;;;;;;5357048;26;86234;-87
2024/04/09 00:11:58;;;;;;;4.63;2.47;;;;;;;;;;5368365;26;91530;-86
2024/04/09 00:14:25;;;;;;;4.30;2.20;;;;;;;;;;5358258;26;86213;-85
2024/04/09 00:16:54;;;;;;;5.47;2.67;;;;;;;;;;5371925;26;86275;-85
2024/04/09 00:19:29;;;;;;;5.10;2.13;;;;;;;;;;5382227;26;87170;-86
2024/04/09 00:21:56;;;;;;;5.10;2.70;;;;;;;;;;5395161;26;90389;-86
2024/04/09 00:24:22;;;;;;;5.63;2.50;;;;;;;;;;5385771;26;85919;-86
2024/04/09 00:26:50;;;;;;;4.10;2.35;;;;;;;;;;5391054;26;89223;-86
2024/04/09 00:29:17;;;;;;;5.10;2.58;;;;;;;;;;5391277;26;86794;-86
2024/04/09 00:31:44;;;;;;;4.50;2.55;;;;;;;;;;5389793;26;88338;-86
2024/04/09 00:34:10;;;;;;;5.43;2.50;;;;;;;;;;5422484;26;88070;-86
2024/04/09 00:36:37;;;;;;;6.53;2.80;;;;;;;;;;5425702;25;86502;-85
2024/04/09 00:39:18;;;;;;;4.18;2.38;;;;;;;;;;5449850;25;86708;-86
2024/04/09 00:41:47;;;;;;;5.00;2.55;;;;;;;;;;5390213;26;87045;-87
2024/04/09 00:44:14;;;;;;;4.78;2.42;;;;;;;;;;5361390;26;88832;-84
2024/04/09 00:46:42;;;;;;;6.32;2.40;;;;;;;;;;5409696;26;87596;-84
2024/04/09 00:49:10;;;;;;;5.28;2.72;;;;;;;;;;5443989;25;85843;-85
2024/04/09 00:51:39;;;;;;;3.72;2.03;;;;;;;;;;5456922;25;86719;-84
2024/04/09 00:54:10;;;;;;;4.75;2.50;;;;;;;;;;5438621;25;87523;-85
2024/04/09 00:56:37;;;;;;;5.80;2.47;;;;;;;;;;5374190;26;87174;-85
2024/04/09 00:59:04;;;;;;;4.53;2.00;;;;;;;;;;5329136;26;86206;-86
2024/04/09 01:01:34;;;;;;;5.22;2.20;;;;;;;;;;5355088;26;86903;-85
2024/04/09 01:04:01;;;;;;;4.80;2.22;;;;;;;;;;5347480;26;88652;-86
2024/04/09 01:06:28;;;;;;;5.05;2.38;;;;;;;;;;5379956;26;89593;-85
2024/04/09 01:08:56;;;;;;;4.82;2.45;;;;;;;;;;5369146;26;90633;-86
2024/04/09 01:11:28;;;;;;;5.10;2.35;;;;;;;;;;5373771;26;87904;-85
2024/04/09 01:13:55;;;;;;;5.65;2.25;;;;;;;;;;5372281;26;94052;-86
2024/04/09 01:16:22;;;;;;;4.60;2.20;;;;;;;;;;5352994;26;88853;-85
2024/04/09 01:18:49;;;;;;;5.35;2.20;;;;;;;;;;5320967;26;88184;-85
2024/04/09 01:21:16;;;;;;;4.82;2.28;;;;;;;;;;5343394;26;87458;-85
2024/04/09 01:23:44;;;;;;;5.45;2.38;;;;;;;;;;5411931;26;86780;-85
2024/04/09 01:26:14;;;;;;;4.38;1.73;;;;;;;;;;5421132;26;87032;-84
2024/04/09 01:28:41;;;;;;;5.10;2.30;;;;;;;;;;5409134;26;88394;-85
2024/04/09 01:31:15;;;;;;;5.07;2.20;;;;;;;;;;5408867;26;86549;-86
2024/04/09 01:33:53;;;;;;;4.60;2.30;;;;;;;;;;5361580;26;89682;-85
2024/04/09 01:36:20;;;;;;;3.08;2.10;;;;;;;;;;5387029;25;88664;-84
2024/04/09 01:39:10;;;;;;;4.05;1.90;;;;;;;;;;5425311;25;85569;-85
2024/04/09 01:41:55;;;;;;;4.65;2.15;;;;;;;;;;5386753;25;88195;-85
2024/04/09 01:44:26;;;;;;;5.10;2.40;;;;;;;;;;5448470;25;87985;-85
2024/04/09 01:46:53;;;;;;;4.28;2.28;;;;;;;;;;5425258;25;87883;-85
2024/04/09 01:49:29;;;;;;;4.10;2.13;;;;;;;;;;5364860;26;89746;-85
2024/04/09 01:52:11;;;;;;;4.80;2.25;;;;;;;;;;5359303;26;92145;-84
2024/04/09 01:54:48;;;;;;;4.82;2.20;;;;;;;;;;5364671;26;88606;-85
2024/04/09 01:57:16;;;;;;;3.72;2.13;;;;;;;;;;5425104;26;86785;-86
2024/04/09 01:59:43;;;;;;;5.07;2.20;;;;;;;;;;5383825;26;87640;-87
2024/04/09 02:02:19;;;;;;;4.60;2.05;;;;;;;;;;5395317;26;89015;-87
2024/04/09 02:04:57;;;;;;;4.35;2.30;;;;;;;;;;5326812;26;88702;-88
2024/04/09 02:07:24;;;;;;;3.55;2.00;;;;;;;;;;5352665;26;86270;-87
2024/04/09 02:09:51;;;;;;;3.28;1.95;;;;;;;;;;5352653;26;86257;-87
2024/04/09 02:12:18;;;;;;;2.92;1.90;;;;;;;;;;5351795;26;87072;-86
2024/04/09 02:14:45;;;;;;;4.00;1.83;;;;;;;;;;5344663;26;88624;-86
2024/04/09 02:17:19;;;;;;;3.70;1.90;;;;;;;;;;5301037;26;86724;-86
2024/04/09 02:19:49;;;;;;;3.30;1.80;;;;;;;;;;5320428;26;86205;-86
2024/04/09 02:22:16;;;;;;;4.05;1.88;;;;;;;;;;5312335;26;88044;-85
2024/04/09 02:24:47;;;;;;;5.40;2.20;;;;;;;;;;5336623;26;86763;-84
2024/04/09 02:27:24;;;;;;;4.20;1.90;;;;;;;;;;5309573;26;88831;-85
2024/04/09 02:29:54;;;;;;;4.18;1.90;;;;;;;;;;5339258;26;86687;-86
2024/04/09 02:32:23;;;;;;;3.30;1.70;;;;;;;;;;5322744;26;87867;-86
2024/04/09 02:34:57;;;;;;;4.47;1.85;;;;;;;;;;5327989;26;87817;-85
2024/04/09 02:37:24;;;;;;;3.45;1.80;;;;;;;;;;5320300;26;89801;-87
2024/04/09 02:39:51;;;;;;;3.22;1.80;;;;;;;;;;5319891;26;92618;-85
2024/04/09 02:42:24;;;;;;;6.05;1.92;;;;;;;;;;5384764;26;87176;-85
2024/04/09 02:44:54;;;;;;;2.88;1.70;;;;;;;;;;5391249;26;89488;-85
2024/04/09 02:47:21;;;;;;;2.88;1.60;;;;;;;;;;5392441;26;88901;-84
2024/04/09 02:49:48;;;;;;;2.72;1.58;;;;;;;;;;5421142;26;86939;-85
2024/04/09 02:52:15;;;;;;;4.32;1.70;;;;;;;;;;5401657;26;86180;-85
2024/04/09 02:54:53;;;;;;;3.67;1.70;;;;;;;;;;5392923;26;87243;-85
2024/04/09 02:57:21;;;;;;;3.97;1.70;;;;;;;;;;5382053;26;86748;-86
2024/04/09 02:59:53;;;;;;;4.15;1.70;;;;;;;;;;5390496;26;89004;-85
2024/04/09 03:02:20;;;;;;;3.08;1.75;;;;;;;;;;5351045;26;87163;-85
2024/04/09 03:04:50;;;;;;;3.17;1.60;;;;;;;;;;5409144;26;87949;-86
2024/04/09 03:07:17;;;;;;;3.35;1.73;;;;;;;;;;5392227;26;86075;-85
2024/04/09 03:09:44;;;;;;;3.95;1.83;;;;;;;;;;5393765;26;86783;-85
2024/04/09 03:12:12;;;;;;;4.18;1.55;;;;;;;;;;5392399;26;86471;-85
2024/04/09 03:14:39;;;;;;;;;;;;;;;;;;5394011;26;89059;-85
2024/04/09 03:17:08;;;;;;;3.47;1.70;;;;;;;;;;5387981;26;90159;-86
2024/04/09 03:19:40;;;;;;;3.00;1.70;;;;;;;;;;5322632;26;86118;-85
2024/04/09 03:22:19;;;;;;;3.45;1.60;;;;;;;;;;5358901;26;86262;-85
2024/04/09 03:24:49;;;;;;;3.05;1.70;;;;;;;;;;5386418;26;86715;-86
2024/04/09 03:27:16;;;;;;;3.00;1.73;;;;;;;;;;5354460;26;87902;-86
2024/04/09 03:29:49;;;;;;;3.15;1.55;;;;;;;;;;5338126;26;89221;-85
2024/04/09 03:32:21;;;;;;;2.75;1.50;;;;;;;;;;5366882;26;95263;-84
2024/04/09 03:34:48;;;;;;;3.45;1.70;;;;;;;;;;5426912;25;87132;-85
2024/04/09 03:37:15;;;;;;;2.17;1.40;;;;;;;;;;5418224;25;87944;-85
2024/04/09 03:39:42;;;;;;;2.88;1.52;;;;;;;;;;5425844;25;88700;-84
2024/04/09 03:42:15;;;;;;;2.78;1.67;;;;;;;;;;5428958;25;88248;-85
2024/04/09 03:44:54;;;;;;;3.65;1.98;;;;;;;;;;5399793;25;88666;-85
2024/04/09 03:47:22;;;;;;;3.10;1.50;;;;;;;;;;5420077;25;86575;-87
2024/04/09 03:49:49;;;;;;;2.78;1.60;;;;;;;;;;5351433;26;89434;-86
2024/04/09 03:52:19;;;;;;;3.05;1.50;;;;;;;;;;5362694;26;87353;-85
2024/04/09 03:54:52;;;;;;;3.38;1.58;;;;;;;;;;5424981;26;91969;-86
2024/04/09 03:57:22;;;;;;;3.97;1.50;;;;;;;;;;5362706;26;89741;-85
2024/04/09 03:59:49;;;;;;;3.70;1.55;;;;;;;;;;5351402;26;88443;-85
2024/04/09 04:02:16;;;;;;;3.22;1.60;;;;;;;;;;5390308;26;87044;-86
2024/04/09 04:04:43;;;;;;;2.65;1.40;;;;;;;;;;5380455;26;87961;-84
2024/04/09 04:07:15;;;;;;;2.65;1.38;;;;;;;;;;5415490;26;86340;-86
2024/04/09 04:09:42;;;;;;;2.28;1.35;;;;;;;;;;5415921;26;89316;-86
2024/04/09 04:12:09;;;;;;;3.00;1.60;;;;;;;;;;5378910;26;89159;-86
2024/04/09 04:14:51;;;;;;;2.78;1.50;;;;;;;;;;5391818;26;88421;-86
2024/04/09 04:17:21;;;;;;;2.75;1.55;;;;;;;;;;5355286;26;89343;-84
2024/04/09 04:19:48;;;;;;;3.13;1.50;;;;;;;;;;5361143;25;88343;-85
2024/04/09 04:22:15;;;;;;;2.40;1.40;;;;;;;;;;5392370;26;89845;-84
2024/04/09 04:24:47;;;;;;;2.20;1.40;;;;;;;;;;5390014;26;87647;-84
2024/04/09 04:27:18;;;;;;;3.35;1.33;;;;;;;;;;5381212;26;88446;-85
2024/04/09 04:29:45;;;;;;;3.97;1.58;;;;;;;;;;5390493;26;89235;-85
2024/04/09 04:32:12;;;;;;;2.88;1.50;;;;;;;;;;5391444;26;89839;-85
2024/04/09 04:34:39;;;;;;;2.30;1.48;;;;;;;;;;5425557;25;85755;-85
2024/04/09 04:37:07;;;;;;;3.13;1.45;;;;;;;;;;5459490;25;86730;-86
2024/04/09 04:39:33;;;;;;;2.00;1.35;;;;;;;;;;5428824;25;88652;-86
2024/04/09 04:42:01;;;;;;;2.80;1.50;;;;;;;;;;5459128;25;87350;-86
2024/04/09 04:44:28;;;;;;;3.63;1.50;;;;;;;;;;5426753;25;89399;-87
2024/04/09 04:46:55;;;;;;;;;;;;;;;;;;5458243;25;87529;-85
2024/04/09 04:49:23;;;;;;;3.83;1.50;;;;;;;;;;5429822;25;87236;-85
2024/04/09 04:51:52;;;;;;;2.58;1.50;;;;;;;;;;5421779;26;87687;-84
2024/04/09 04:54:18;;;;;;;2.65;1.50;;;;;;;;;;5361360;26;88484;-84
2024/04/09 04:56:45;;;;;;;2.75;1.60;;;;;;;;;;5390880;26;87830;-85
2024/04/09 04:59:12;;;;;;;2.85;1.63;;;;;;;;;;5374141;26;88689;-85
2024/04/09 05:01:51;;;;;;;3.40;1.63;;;;;;;;;;5423112;25;86704;-83
2024/04/09 05:04:26;;;;;;;2.97;1.60;;;;;;;;;;5392699;26;86857;-86
2024/04/09 05:06:54;;;;;;;3.05;1.73;;;;;;;;;;5417381;25;87211;-85
2024/04/09 05:09:20;;;;;;;2.70;1.40;;;;;;;;;;5355293;26;90244;-86
2024/04/09 05:11:47;;;;;;;2.80;1.38;;;;;;;;;;5403308;25;86839;-85
2024/04/09 05:14:14;;;;;;;2.85;1.50;;;;;;;;;;5351207;26;87842;-86
2024/04/09 05:16:42;;;;;;;2.33;1.45;;;;;;;;;;5361431;26;87264;-85
2024/04/09 05:19:09;;;;;;;3.20;1.70;;;;;;;;;;5392041;26;86815;-84
2024/04/09 05:21:37;;;;;;;1.98;1.40;;;;;;;;;;5379056;26;86707;-83
2024/04/09 05:24:04;;;;;;;2.88;1.60;;;;;;;;;;5347928;26;85567;-87
2024/04/09 05:26:33;;;;;;;2.50;1.33;;;;;;;;;;5358156;26;86073;-86
2024/04/09 05:29:00;;;;;;;3.28;1.60;;;;;;;;;;5388767;26;87405;-85
2024/04/09 05:31:27;;;;;;;2.88;1.55;;;;;;;;;;5328166;26;89800;-87
2024/04/09 05:33:55;;;;;;;3.30;1.60;;;;;;;;;;5355127;26;88546;-86
2024/04/09 05:36:23;;;;;;;2.40;1.30;;;;;;;;;;5415170;26;86630;-86
2024/04/09 05:38:50;;;;;;;3.47;1.60;;;;;;;;;;5392992;26;91251;-84
2024/04/09 05:41:20;;;;;;;3.42;1.45;;;;;;;;;;5394731;26;87748;-85
2024/04/09 05:43:50;;;;;;;3.10;1.35;;;;;;;;;;5375310;26;87830;-85
2024/04/09 05:46:18;;;;;;;2.15;1.35;;;;;;;;;;5367084;26;86818;-85
2024/04/09 05:48:45;;;;;;;;;;;;;;;;;;5412464;26;86630;-88
2024/04/09 05:51:12;;;;;;;2.10;1.27;;;;;;;;;;5363647;26;88865;-84
2024/04/09 05:53:39;;;;;;;3.20;1.38;;;;;;;;;;5390033;26;86890;-83
2024/04/09 05:56:08;;;;;;;3.22;1.38;;;;;;;;;;5362765;26;87077;-85
2024/04/09 05:58:42;;;;;;;;;;;;;;;;;;5384177;26;88352;-86
2024/04/09 06:01:14;;;;;;;2.80;1.40;;;;;;;;;;5397583;26;86456;-85
2024/04/09 06:03:45;;;;;;;2.95;1.30;;;;;;;;;;5413385;26;86616;-86
2024/04/09 06:06:15;;;;;;;2.65;1.30;;;;;;;;;;5363399;26;88832;-86
2024/04/09 06:08:42;;;;;;;;;;;;;;;;;;5360964;26;86742;-86
2024/04/09 06:11:09;;;;;;;1.70;1.13;;;;;;;;;;5366123;26;89411;-86
2024/04/09 06:13:38;;;;;;;4.47;1.50;;;;;;;;;;5412392;26;87503;-87
2024/04/09 06:16:05;;;;;;;3.45;1.30;;;;;;;;;;5392519;26;89158;-85
2024/04/09 06:18:31;;;;;;;3.28;1.38;;;;;;;;;;5424933;26;86485;-85
2024/04/09 06:20:59;;;;;;;4.30;1.40;;;;;;;;;;5393436;26;88398;-86
2024/04/09 06:23:25;;;;;;;3.05;1.10;;;;;;;;;;5425656;26;87445;-85
2024/04/09 06:25:53;;;;;;;2.15;1.15;;;;;;;;;;5362822;26;89808;-86
2024/04/09 06:28:20;;;;;;;2.83;1.33;;;;;;;;;;5387050;26;88324;-85
2024/04/09 06:30:48;;;;;;;3.00;1.17;;;;;;;;;;5395894;26;87031;-84
2024/04/09 06:33:16;;;;;;;3.60;1.40;;;;;;;;;;5396843;26;86624;-85
2024/04/09 06:35:44;;;;;;;1.48;0.95;;;;;;;;;;5392096;26;87891;-85
2024/04/09 06:38:11;;;;;;;3.85;1.30;;;;;;;;;;5414849;26;92848;-85
2024/04/09 06:40:38;;;;;;;2.50;1.20;;;;;;;;;;5361792;26;88520;-85
2024/04/09 06:43:11;;;;;;;4.00;1.40;;;;;;;;;;5322270;26;89720;-86
2024/04/09 06:45:46;;;;;;;3.22;1.30;;;;;;;;;;5349652;26;89544;-85
2024/04/09 06:48:14;;;;;;;2.83;1.33;;;;;;;;;;5380302;26;85893;-85
2024/04/09 06:50:41;;;;;;;2.42;1.20;;;;;;;;;;5412856;25;92994;-85
2024/04/09 06:53:11;;;;;;;3.63;1.20;;;;;;;;;;5428597;25;87148;-85
2024/04/09 06:55:39;;;;;;;2.40;1.23;;;;;;;;;;5427827;25;89569;-86
2024/04/09 06:58:06;;;;;;;2.10;1.15;;;;;;;;;;5460245;25;88628;-85
2024/04/09 07:00:33;;;;;;;2.13;1.20;;;;;;;;;;5425506;25;86833;-88
2024/04/09 07:03:07;;;;;;;2.40;1.20;;;;;;;;;;5385815;26;87705;-85
2024/04/09 07:05:35;;;;;;;2.30;1.17;;;;;;;;;;5390794;26;86964;-85
2024/04/09 07:08:09;;;;;;;3.22;1.30;;;;;;;;;;5345674;26;86901;-86
2024/04/09 07:10:43;;;;;;;3.15;1.40;;;;;;;;;;5356702;26;87212;-84
2024/04/09 07:13:13;;;;;;;2.42;1.25;;;;;;;;;;5383789;26;88151;-85
2024/04/09 07:15:43;;;;;;;3.38;1.20;;;;;;;;;;5415852;26;89720;-85
2024/04/09 07:18:13;;;;;;;3.55;1.30;;;;;;;;;;5356586;26;87935;-86
2024/04/09 07:20:41;;;;;;;3.33;1.20;;;;;;;;;;5363728;26;87113;-87
2024/04/09 07:23:11;;;;;;;2.50;1.25;;;;;;;;;;5364920;26;89383;-84
2024/04/09 07:25:46;;;;;;;2.25;1.20;;;;;;;;;;5354295;26;89632;-89
2024/04/09 07:28:15;;;;;;;2.97;1.17;;;;;;;;;;5357043;26;88361;-85
2024/04/09 07:30:46;;;;;;;2.63;1.10;;;;;;;;;;5374485;26;89093;-85
2024/04/09 07:33:13;;;;;;;2.88;1.10;;;;;;;;;;5419594;26;86289;-88
2024/04/09 07:35:40;;;;;;;4.07;1.20;;;;;;;;;;5403801;26;87903;-87
2024/04/09 07:38:07;;;;;;;3.97;1.27;;;;;;;;;;5422978;26;87073;-88
2024/04/09 07:40:34;;;;;;;2.53;1.30;;;;;;;;;;5391744;26;88625;-87
2024/04/09 07:43:01;;;;;;;1.50;1.10;;;;;;;;;;5391659;26;89798;-86
2024/04/09 07:45:34;;;;;;;2.75;1.20;;;;;;;;;;5422123;26;86654;-86
2024/04/09 07:48:07;;;;;;;;;;;;;;;;;;5394346;26;90905;-85
2024/04/09 07:50:35;;;;;;;4.78;1.02;;;;;;;;;;5393744;26;86873;-85
2024/04/09 07:53:14;;;;;;;3.55;1.30;;;;;;;;;;5353432;26;85675;-85
2024/04/09 07:55:48;;;;;;;3.42;1.25;;;;;;;;;;5353595;25;87735;-86
2024/04/09 07:58:20;;;;;;;2.95;1.10;;;;;;;;;;5362237;26;89496;-84
2024/04/09 08:00:49;;;;;;;1.95;1.00;;;;;;;;;;5361719;26;87433;-87
2024/04/09 08:03:18;;;;;;;2.75;0.90;;;;;;;;;;5363419;26;89589;-84
2024/04/09 08:05:49;;;;;;;2.72;1.02;;;;;;;;;;5422249;26;87195;-84
2024/04/09 08:08:22;;;;;;;3.35;1.40;;;;;;;;;;5380360;26;87527;-84
2024/04/09 08:11:00;;;;;;;3.38;1.00;;;;;;;;;;5356085;26;89386;-87
2024/04/09 08:13:37;;;;;;;2.08;0.90;;;;;;;;;;5354670;26;88772;-86
2024/04/09 08:16:06;;;;;;;3.95;1.20;;;;;;;;;;5357652;26;86724;-86
2024/04/09 08:18:41;;;;;;;3.60;1.02;;;;;;;;;;5332174;26;90033;-85
2024/04/09 08:21:13;;;;;;;3.58;1.38;;;;;;;;;;5415258;26;86256;-85
2024/04/09 08:23:44;;;;;;;3.20;1.10;;;;;;;;;;5375666;26;87230;-84
2024/04/09 08:26:11;;;;;;;2.28;1.20;;;;;;;;;;5412077;26;89021;-87
2024/04/09 08:28:39;;;;;;;3.58;1.08;;;;;;;;;;5376637;26;86564;-86
2024/04/09 08:31:18;;;;;;;3.15;1.27;;;;;;;;;;5358228;26;88986;-86
2024/04/09 08:33:47;;;;;;;3.63;1.25;;;;;;;;;;5375600;26;87539;-87
2024/04/09 08:36:23;;;;;;;3.13;1.20;;;;;;;;;;5357936;26;88076;-86
2024/04/09 08:38:54;;;;;;;2.08;1.10;;;;;;;;;;5385495;26;89373;-85
2024/04/09 08:41:28;;;;;;;4.05;1.20;;;;;;;;;;5366642;26;87239;-85
2024/04/09 08:44:08;;;;;;;3.80;1.52;;;;;;;;;;5386116;26;91981;-85
2024/04/09 08:46:43;;;;;;;3.13;1.45;;;;;;;;;;5401543;26;88061;-85
2024/04/09 08:49:23;;;;;;;4.00;1.40;;;;;;;;;;5358348;26;88537;-84
2024/04/09 08:51:51;;;;;;;3.55;1.30;;;;;;;;;;5381060;26;87257;-85
2024/04/09 08:54:19;;;;;;;3.45;1.33;;;;;;;;;;5351048;26;86607;-84
2024/04/09 08:57:04;;;;;;;3.20;1.25;;;;;;;;;;5328783;26;86194;-84
2024/04/09 08:59:37;;;;;;;4.45;1.20;;;;;;;;;;5306409;26;86793;-86
2024/04/09 09:02:13;;;;;;;3.05;1.33;;;;;;;;;;5336725;26;86778;-85
2024/04/09 09:04:46;;;;;;;2.00;1.00;;;;;;;;;;5323788;26;88600;-85
2024/04/09 09:07:19;;;;;;;3.50;1.20;;;;;;;;;;5327385;26;86735;-85
2024/04/09 09:09:47;;;;;;;4.05;1.13;;;;;;;;;;5354554;26;87999;-86
2024/04/09 09:12:18;;;;;;;2.65;1.20;;;;;;;;;;5356581;26;87491;-86
2024/04/09 09:14:49;;;;;;;4.38;1.30;;;;;;;;;;5325245;26;88974;-85
2024/04/09 09:17:22;;;;;;;2.85;1.10;;;;;;;;;;5355224;26;87175;-85
2024/04/09 09:20:14;;;;;;;3.75;1.17;;;;;;;;;;5381296;26;87747;-85
2024/04/09 09:22:45;;;;;;;3.10;0.90;;;;;;;;;;5351857;26;89522;-84
2024/04/09 09:25:15;;;;;;;2.92;1.10;;;;;;;;;;5349780;26;88529;-87
2024/04/09 09:27:43;;;;;;;3.47;1.20;;;;;;;;;;5352481;26;88754;-86
2024/04/09 09:30:14;;;;;;;2.83;0.82;;;;;;;;;;5390594;25;87014;-84
2024/04/09 09:32:48;;;;;;;3.75;1.05;;;;;;;;;;5399212;26;87375;-86
2024/04/09 09:35:17;;;;;;;2.50;1.00;;;;;;;;;;5406237;25;86332;-85
2024/04/09 09:37:48;;;;;;;2.72;1.00;;;;;;;;;;5426250;25;87357;-85
2024/04/09 09:40:17;;;;;;;2.38;0.88;;;;;;;;;;5397811;25;89188;-85
2024/04/09 09:42:45;;;;;;;2.42;1.10;;;;;;;;;;5455826;25;88138;-85
2024/04/09 09:45:13;;;;;;;2.78;1.00;;;;;;;;;;5458139;25;86117;-85
2024/04/09 09:47:40;;;;;;;3.25;1.10;;;;;;;;;;5440400;25;86631;-86
2024/04/09 09:50:14;;;;;;;3.15;1.10;;;;;;;;;;5359986;26;87938;-85
2024/04/09 09:52:48;;;;;;;3.83;1.20;;;;;;;;;;5391427;26;89770;-85
2024/04/09 09:55:16;;;;;;;3.45;1.10;;;;;;;;;;5389375;26;86946;-86
2024/04/09 09:57:47;;;;;;;;;;;;;;;;;;5389550;26;86647;-86
2024/04/09 10:00:16;;;;;;;2.60;0.80;;;;;;;;;;5355921;26;92227;-85
2024/04/09 10:02:44;;;;;;;3.35;0.98;;;;;;;;;;5401728;26;86707;-84
2024/04/09 10:05:14;;;;;;;2.63;0.85;;;;;;;;;;5390297;26;87122;-85
2024/04/09 10:07:43;;;;;;;1.52;0.80;;;;;;;;;;5351786;26;89649;-84
2024/04/09 10:10:24;;;;;;;2.35;0.73;;;;;;;;;;5405585;25;87312;-87
2024/04/09 10:12:53;;;;;;;4.03;1.23;;;;;;;;;;5337920;26;88533;-85
2024/04/09 10:15:27;;;;;;;2.20;0.90;;;;;;;;;;5351889;26;89119;-85
2024/04/09 10:18:04;;;;;;;3.40;1.10;;;;;;;;;;5381660;26;90650;-84
2024/04/09 10:20:36;;;;;;;2.15;0.77;;;;;;;;;;5389280;26;87527;-85
2024/04/09 10:23:04;;;;;;;3.55;1.00;;;;;;;;;;5388899;26;87412;-86
2024/04/09 10:25:38;;;;;;;2.40;0.80;;;;;;;;;;5411428;26;86094;-85
2024/04/09 10:28:06;;;;;;;1.75;0.93;;;;;;;;;;5389473;26;86137;-85
2024/04/09 10:30:43;;;;;;;3.92;1.00;;;;;;;;;;5405250;26;88880;-85
2024/04/09 10:33:13;;;;;;;2.92;1.00;;;;;;;;;;5398377;26;87071;-84
2024/04/09 10:35:54;;;;;;;2.42;0.90;;;;;;;;;;5392276;26;89176;-84
2024/04/09 10:38:26;;;;;;;2.13;0.80;;;;;;;;;;5396609;26;87549;-85
2024/04/09 10:40:55;;;;;;;2.20;0.75;;;;;;;;;;5346302;26;89860;-84
2024/04/09 10:43:24;;;;;;;3.70;0.90;;;;;;;;;;5388191;26;86921;-86
2024/04/09 10:45:51;;;;;;;2.28;0.90;;;;;;;;;;5349645;26;88123;-84
2024/04/09 10:48:33;;;;;;;3.05;0.75;;;;;;;;;;5380523;26;89795;-85
2024/04/09 10:51:04;;;;;;;2.78;0.90;;;;;;;;;;5396219;26;87416;-86
2024/04/09 10:53:40;;;;;;;1.77;0.73;;;;;;;;;;5373616;26;88770;-84
2024/04/09 10:56:09;;;;;;;3.33;0.90;;;;;;;;;;5368982;26;88546;-84
2024/04/09 10:58:40;;;;;;;2.83;1.15;;;;;;;;;;5395511;26;87079;-86
2024/04/09 11:01:14;;;;;;;2.97;0.90;;;;;;;;;;5397140;26;87711;-84
2024/04/09 11:03:41;;;;;;;2.55;0.90;;;;;;;;;;5425715;26;86661;-85
2024/04/09 11:06:15;;;;;;;1.45;0.80;;;;;;;;;;5393545;26;86466;-86
2024/04/09 11:08:45;;;;;;;2.97;1.05;;;;;;;;;;5394340;26;86954;-88
2024/04/09 11:11:15;;;;;;;3.08;0.90;;;;;;;;;;5395284;26;86690;-85
2024/04/09 11:13:45;;;;;;;2.38;0.98;;;;;;;;;;5389180;26;87336;-85
2024/04/09 11:16:23;;;;;;;5.35;1.05;;;;;;;;;;5396669;26;87690;-86
2024/04/09 11:18:54;;;;;;;2.95;1.00;;;;;;;;;;5386002;26;87837;-85
2024/04/09 11:21:21;;;;;;;2.67;0.93;;;;;;;;;;5381045;26;88502;-85
2024/04/09 11:23:48;;;;;;;2.70;1.10;;;;;;;;;;5389602;26;89206;-85
2024/04/09 11:26:15;;;;;;;1.80;0.90;;;;;;;;;;5423867;26;86673;-84
2024/04/09 11:28:48;;;;;;;1.83;0.80;;;;;;;;;;5381797;26;92402;-85
2024/04/09 11:31:15;;;;;;;2.33;1.00;;;;;;;;;;5392029;26;86830;-85
2024/04/09 11:33:45;;;;;;;2.70;1.00;;;;;;;;;;5422558;26;86070;-85
2024/04/09 11:36:14;;;;;;;3.60;1.10;;;;;;;;;;5417626;25;87643;-85
2024/04/09 11:38:52;;;;;;;4.45;1.00;;;;;;;;;;5459052;25;86523;-84
2024/04/09 11:41:19;;;;;;;2.47;0.90;;;;;;;;;;5463214;25;85495;-85
2024/04/09 11:43:46;;;;;;;3.70;0.98;;;;;;;;;;5446132;25;87442;-85
2024/04/09 11:46:13;;;;;;;1.70;0.90;;;;;;;;;;5392997;26;88229;-88
2024/04/09 11:48:40;;;;;;;2.10;1.00;;;;;;;;;;5391908;26;89557;-86
2024/04/09 11:51:07;;;;;;;3.08;0.98;;;;;;;;;;5393339;26;87093;-85
2024/04/09 11:53:37;;;;;;;1.92;0.90;;;;;;;;;;5392225;26;88169;-84
2024/04/09 11:56:04;;;;;;;2.88;0.80;;;;;;;;;;5413791;26;86651;-85
2024/04/09 11:58:31;;;;;;;3.17;0.90;;;;;;;;;;5380871;25;86164;-84
2024/04/09 12:01:01;;;;;;;4.35;1.00;;;;;;;;;;5394170;26;87954;-86
2024/04/09 12:03:33;;;;;;;3.10;0.90;;;;;;;;;;5391159;26;87825;-86
2024/04/09 12:06:03;;;;;;;3.00;0.80;;;;;;;;;;5392537;26;90093;-84
2024/04/09 12:08:30;;;;;;;3.13;1.00;;;;;;;;;;5422431;26;86463;-85
2024/04/09 12:10:57;;;;;;;3.40;0.80;;;;;;;;;;5387362;26;88429;-85
2024/04/09 12:13:24;;;;;;;2.67;0.93;;;;;;;;;;5366752;26;88370;-87
2024/04/09 12:15:51;;;;;;;1.95;0.88;;;;;;;;;;5422008;26;87887;-86
2024/04/09 12:18:18;;;;;;;1.50;0.85;;;;;;;;;;5424155;25;87167;-85
2024/04/09 12:20:48;;;;;;;2.40;1.17;;;;;;;;;;5391012;26;88810;-84
2024/04/09 12:23:17;;;;;;;2.28;0.90;;;;;;;;;;5395687;26;87488;-86
2024/04/09 12:25:48;;;;;;;2.90;0.82;;;;;;;;;;5420427;26;91569;-86
2024/04/09 12:28:15;;;;;;;2.50;0.80;;;;;;;;;;5350836;25;88057;-85
2024/04/09 12:30:42;;;;;;;2.40;0.75;;;;;;;;;;5420572;26;86049;-84
2024/04/09 12:33:10;;;;;;;2.83;0.73;;;;;;;;;;5388555;26;88667;-86
2024/04/09 12:35:40;;;;;;;1.88;0.80;;;;;;;;;;5407826;25;86982;-84
2024/04/09 12:38:11;;;;;;;1.92;0.90;;;;;;;;;;5436334;25;88089;-84
2024/04/09 12:40:48;;;;;;;;;;;;;;;;;;5382619;25;86736;-84
2024/04/09 12:43:15;;;;;;;1.58;0.90;;;;;;;;;;5428991;25;86230;-84
2024/04/09 12:45:42;;;;;;;3.60;1.00;;;;;;;;;;5460302;25;86734;-85
2024/04/09 12:48:09;;;;;;;2.38;0.80;;;;;;;;;;5404508;26;87177;-86
2024/04/09 12:50:37;;;;;;;3.47;1.00;;;;;;;;;;5390238;26;86954;-84
2024/04/09 12:53:08;;;;;;;1.25;0.70;;;;;;;;;;5390643;26;87116;-84
2024/04/09 12:55:35;;;;;;;2.80;0.88;;;;;;;;;;5390085;26;89390;-85
2024/04/09 12:58:05;;;;;;;2.58;1.05;;;;;;;;;;5420828;26;86514;-85
2024/04/09 13:00:33;;;;;;;1.48;0.77;;;;;;;;;;5390628;26;86944;-86
2024/04/09 13:03:22;;;;;;;1.67;0.80;;;;;;;;;;5420969;25;87254;-85
2024/04/09 13:05:50;;;;;;;2.15;0.85;;;;;;;;;;5414818;26;87624;-85
2024/04/09 13:08:17;;;;;;;2.78;0.70;;;;;;;;;;5387104;26;86263;-85
2024/04/09 13:10:44;;;;;;;3.05;0.90;;;;;;;;;;5414225;26;86468;-85
2024/04/09 13:13:12;;;;;;;1.73;0.63;;;;;;;;;;5382947;26;88970;-84
2024/04/09 13:15:41;;;;;;;2.22;0.95;;;;;;;;;;5354103;26;92177;-84
2024/04/09 13:18:11;;;;;;;2.60;1.25;;;;;;;;;;5389710;26;89359;-85
2024/04/09 13:20:39;;;;;;;3.92;0.90;;;;;;;;;;5420631;26;87947;-87
2024/04/09 13:23:09;;;;;;;1.65;0.80;;;;;;;;;;5421349;26;86673;-86
2024/04/09 13:25:42;;;;;;;3.15;1.00;;;;;;;;;;5388872;26;87332;-84
2024/04/09 13:28:09;;;;;;;;;;;;;;;;;;5420869;26;87142;-85
2024/04/09 13:30:48;;;;;;;2.58;0.90;;;;;;;;;;5367726;26;88699;-85
2024/04/09 13:33:16;;;;;;;1.80;0.73;;;;;;;;;;5378866;25;86983;-85
2024/04/09 13:35:43;;;;;;;;;;;;;;;;;;5378691;25;89292;-85
2024/04/09 13:38:11;;;;;;;2.25;0.80;;;;;;;;;;5427717;25;87015;-85
2024/04/09 13:40:37;;;;;;;3.38;0.80;;;;;;;;;;5457759;25;86444;-86
2024/04/09 13:43:04;;;;;;;2.10;0.70;;;;;;;;;;5425698;25;86208;-84
2024/04/09 13:45:33;;;;;;;1.95;0.73;;;;;;;;;;5385604;25;89055;-84
2024/04/09 13:48:05;;;;;;;1.65;0.90;;;;;;;;;;5400003;25;86694;-85
2024/04/09 13:50:32;;;;;;;2.78;0.80;;;;;;;;;;5431859;25;90183;-84
2024/04/09 13:53:00;;;;;;;2.08;0.80;;;;;;;;;;5458452;25;89187;-88
2024/04/09 13:55:27;;;;;;;3.13;1.00;;;;;;;;;;5398918;25;90300;-86
2024/04/09 13:57:54;;;;;;;1.52;0.85;;;;;;;;;;5460030;25;87328;-85
2024/04/09 14:00:22;;;;;;;3.15;0.88;;;;;;;;;;5445911;25;86435;-85
2024/04/09 14:02:49;;;;;;;2.33;0.90;;;;;;;;;;5422206;25;86424;-86
2024/04/09 14:05:18;;;;;;;2.28;0.77;;;;;;;;;;5385988;26;86251;-84
2024/04/09 14:07:46;;;;;;;2.30;0.82;;;;;;;;;;5386877;26;86679;-84
2024/04/09 14:10:13;;;;;;;1.85;0.73;;;;;;;;;;5386797;26;86666;-85
2024/04/09 14:12:41;;;;;;;2.33;0.95;;;;;;;;;;5348780;26;87202;-86
2024/04/09 14:15:09;;;;;;;1.85;0.90;;;;;;;;;;5385773;26;89742;-85
2024/04/09 14:17:37;;;;;;;1.42;0.75;;;;;;;;;;5415243;26;87269;-84
2024/04/09 14:20:14;;;;;;;1.88;0.73;;;;;;;;;;5396000;26;86194;-85
2024/04/09 14:22:41;;;;;;;1.95;0.80;;;;;;;;;;5376420;26;86274;-84
2024/04/09 14:25:12;;;;;;;1.67;0.60;;;;;;;;;;5377207;26;89167;-85
2024/04/09 14:27:42;;;;;;;1.70;0.90;;;;;;;;;;5360318;26;88080;-86
2024/04/09 14:30:10;;;;;;;2.88;0.90;;;;;;;;;;5396757;26;86756;-84
2024/04/09 14:32:46;;;;;;;3.22;0.90;;;;;;;;;;5376053;26;89497;-84
2024/04/09 14:35:14;;;;;;;;;;;;;;;;;;5410876;26;86024;-85
2024/04/09 14:37:42;;;;;;;2.65;0.75;;;;;;;;;;5363731;26;88849;-86
2024/04/09 14:40:09;;;;;;;1.70;0.80;;;;;;;;;;5362078;26;86733;-86
2024/04/09 14:42:36;;;;;;;2.63;0.88;;;;;;;;;;5355836;26;87104;-85
2024/04/09 14:45:03;;;;;;;2.08;0.80;;;;;;;;;;5353241;26;86879;-84
2024/04/09 14:47:32;;;;;;;1.50;0.80;;;;;;;;;;5330211;26;86578;-87
2024/04/09 14:50:02;;;;;;;2.90;0.65;;;;;;;;;;5388514;26;90865;-85
2024/04/09 14:52:29;;;;;;;1.42;0.60;;;;;;;;;;5388074;26;86721;-86
2024/04/09 14:54:57;;;;;;;1.88;0.60;;;;;;;;;;5393389;26;87461;-84
2024/04/09 14:57:24;;;;;;;2.40;0.80;;;;;;;;;;5401250;26;86708;-84
2024/04/09 14:59:51;;;;;;;0.93;0.47;;;;;;;;;;5353853;26;87664;-85
2024/04/09 15:02:19;;;;;;;1.98;0.75;;;;;;;;;;5352266;26;86257;-85